sensor_id;sensor_type;location;lat;lon;timestamp;pressure;altitude;pressure_sealevel;temperature;humidity
67457;BME280;54319;52.038;4.640;2023-04-30T00:00:16;102488.53;;;6.97;93.46
67457;BME280;54319;52.038;4.640;2023-04-30T00:02:44;102487.13;;;6.93;93.63
67457;BME280;54319;52.038;4.640;2023-04-30T00:05:11;102439.25;;;6.64;93.64
67457;BME280;54319;52.038;4.640;2023-04-30T00:07:38;102477.28;;;6.92;94.30
67457;BME280;54319;52.038;4.640;2023-04-30T00:10:07;102465.25;;;6.94;94.89
67457;BME280;54319;52.038;4.640;2023-04-30T00:12:34;102475.69;;;6.99;95.07
67457;BME280;54319;52.038;4.640;2023-04-30T00:15:01;102473.53;;;7.03;95.44
67457;BME280;54319;52.038;4.640;2023-04-30T00:17:28;102412.81;;;6.66;95.05
67457;BME280;54319;52.038;4.640;2023-04-30T00:19:56;102460.41;;;6.98;95.32
67457;BME280;54319;52.038;4.640;2023-04-30T00:22:23;102472.94;;;7.09;95.52
67457;BME280;54319;52.038;4.640;2023-04-30T00:24:49;102480.38;;;7.07;95.58
67457;BME280;54319;52.038;4.640;2023-04-30T00:27:16;102263.25;;;5.65;95.70
67457;BME280;54319;52.038;4.640;2023-04-30T00:29:42;102452.16;;;6.90;95.64
67457;BME280;54319;52.038;4.640;2023-04-30T00:32:09;102480.41;;;6.97;95.55
67457;BME280;54319;52.038;4.640;2023-04-30T00:34:36;102429.41;;;6.63;96.08
67457;BME280;54319;52.038;4.640;2023-04-30T00:37:04;102319.94;;;5.97;96.03
67457;BME280;54319;52.038;4.640;2023-04-30T00:39:31;102496.56;;;6.89;96.24
67457;BME280;54319;52.038;4.640;2023-04-30T00:41:58;102478.44;;;6.79;96.36
67457;BME280;54319;52.038;4.640;2023-04-30T00:44:24;102434.00;;;6.53;96.13
67457;BME280;54319;52.038;4.640;2023-04-30T00:46:51;102486.31;;;6.83;96.67
67457;BME280;54319;52.038;4.640;2023-04-30T00:49:17;102490.75;;;6.84;96.81
67457;BME280;54319;52.038;4.640;2023-04-30T00:51:44;102497.16;;;6.83;97.15
67457;BME280;54319;52.038;4.640;2023-04-30T00:54:13;102501.13;;;6.78;97.46
67457;BME280;54319;52.038;4.640;2023-04-30T00:56:40;102492.16;;;6.78;97.19
67457;BME280;54319;52.038;4.640;2023-04-30T00:59:07;102477.91;;;6.66;96.82
67457;BME280;54319;52.038;4.640;2023-04-30T01:01:34;102492.19;;;6.68;96.54
67457;BME280;54319;52.038;4.640;2023-04-30T01:04:00;102444.56;;;6.36;97.12
67457;BME280;54319;52.038;4.640;2023-04-30T01:06:27;102493.19;;;6.67;97.51
67457;BME280;54319;52.038;4.640;2023-04-30T01:08:54;102493.19;;;6.67;97.57
67457;BME280;54319;52.038;4.640;2023-04-30T01:11:33;102498.06;;;6.63;97.49
67457;BME280;54319;52.038;4.640;2023-04-30T01:14:06;102501.19;;;6.59;97.00
67457;BME280;54319;52.038;4.640;2023-04-30T01:16:40;102497.91;;;6.55;97.11
67457;BME280;54319;52.038;4.640;2023-04-30T01:19:19;102508.34;;;6.50;96.98
67457;BME280;54319;52.038;4.640;2023-04-30T01:21:50;102492.22;;;6.39;97.23
67457;BME280;54319;52.038;4.640;2023-04-30T01:24:31;102448.16;;;6.07;97.17
67457;BME280;54319;52.038;4.640;2023-04-30T01:27:13;102497.47;;;6.40;97.65
67457;BME280;54319;52.038;4.640;2023-04-30T01:29:42;102498.50;;;6.39;97.90
67457;BME280;54319;52.038;4.640;2023-04-30T01:32:09;102499.66;;;6.36;97.88
67457;BME280;54319;52.038;4.640;2023-04-30T01:34:35;102463.16;;;6.11;98.21
67457;BME280;54319;52.038;4.640;2023-04-30T01:37:11;102507.63;;;6.38;98.25
67457;BME280;54319;52.038;4.640;2023-04-30T01:39:49;102505.06;;;6.46;98.54
67457;BME280;54319;52.038;4.640;2023-04-30T01:42:20;102510.19;;;6.49;98.92
67457;BME280;54319;52.038;4.640;2023-04-30T01:47:51;102505.31;;;6.53;99.04
67457;BME280;54319;52.038;4.640;2023-04-30T01:50:27;102486.34;;;6.43;99.42
67457;BME280;54319;52.038;4.640;2023-04-30T01:52:58;102483.09;;;6.40;99.02
67457;BME280;54319;52.038;4.640;2023-04-30T01:55:31;102496.47;;;6.51;99.32
67457;BME280;54319;52.038;4.640;2023-04-30T01:58:04;102422.59;;;6.00;99.08
67457;BME280;54319;52.038;4.640;2023-04-30T02:00:33;102454.72;;;6.14;98.94
67457;BME280;54319;52.038;4.640;2023-04-30T02:03:00;102458.84;;;6.08;98.90
67457;BME280;54319;52.038;4.640;2023-04-30T02:05:27;102455.84;;;6.02;98.98
67457;BME280;54319;52.038;4.640;2023-04-30T02:07:54;102471.69;;;6.06;99.05
67457;BME280;54319;52.038;4.640;2023-04-30T02:10:22;102495.38;;;6.14;98.95
67457;BME280;54319;52.038;4.640;2023-04-30T02:12:49;102438.84;;;5.80;99.26
67457;BME280;54319;52.038;4.640;2023-04-30T02:15:16;102499.66;;;6.07;99.24
67457;BME280;54319;52.038;4.640;2023-04-30T02:17:44;102495.47;;;6.03;99.57
67457;BME280;54319;52.038;4.640;2023-04-30T02:20:11;102479.06;;;5.94;99.36
67457;BME280;54319;52.038;4.640;2023-04-30T02:22:37;102504.47;;;6.03;99.74
67457;BME280;54319;52.038;4.640;2023-04-30T02:25:05;102501.06;;;6.01;99.83
67457;BME280;54319;52.038;4.640;2023-04-30T02:27:32;102505.88;;;5.98;99.82
67457;BME280;54319;52.038;4.640;2023-04-30T02:29:59;102500.72;;;5.94;99.70
67457;BME280;54319;52.038;4.640;2023-04-30T02:32:26;102508.13;;;5.92;99.75
67457;BME280;54319;52.038;4.640;2023-04-30T02:34:54;102501.00;;;5.91;100.00
67457;BME280;54319;52.038;4.640;2023-04-30T02:37:20;102494.88;;;5.89;100.00
67457;BME280;54319;52.038;4.640;2023-04-30T02:39:47;102494.16;;;5.87;100.00
67457;BME280;54319;52.038;4.640;2023-04-30T02:42:14;102485.63;;;5.92;100.00
67457;BME280;54319;52.038;4.640;2023-04-30T02:44:41;102489.59;;;5.98;100.00
67457;BME280;54319;52.038;4.640;2023-04-30T02:47:07;102486.34;;;6.04;100.00
67457;BME280;54319;52.038;4.640;2023-04-30T02:49:34;102475.06;;;5.99;100.00
67457;BME280;54319;52.038;4.640;2023-04-30T02:52:02;102471.66;;;5.97;100.00
67457;BME280;54319;52.038;4.640;2023-04-30T02:54:29;102477.78;;;5.99;100.00
67457;BME280;54319;52.038;4.640;2023-04-30T02:56:55;102451.41;;;5.81;100.00
67457;BME280;54319;52.038;4.640;2023-04-30T02:59:22;102474.22;;;5.88;100.00
67457;BME280;54319;52.038;4.640;2023-04-30T03:01:49;102484.91;;;5.90;100.00
67457;BME280;54319;52.038;4.640;2023-04-30T03:04:15;102477.59;;;5.80;100.00
67457;BME280;54319;52.038;4.640;2023-04-30T03:06:42;102468.22;;;5.75;100.00
67457;BME280;54319;52.038;4.640;2023-04-30T03:09:10;102494.16;;;5.87;100.00
67457;BME280;54319;52.038;4.640;2023-04-30T03:11:36;102497.00;;;5.86;100.00
67457;BME280;54319;52.038;4.640;2023-04-30T03:14:03;102498.16;;;5.83;100.00
67457;BME280;54319;52.038;4.640;2023-04-30T03:16:30;102497.28;;;5.83;100.00
67457;BME280;54319;52.038;4.640;2023-04-30T03:18:57;102487.16;;;5.85;100.00
67457;BME280;54319;52.038;4.640;2023-04-30T03:21:24;102456.22;;;5.58;100.00
67457;BME280;54319;52.038;4.640;2023-04-30T03:23:50;102490.44;;;5.78;100.00
67457;BME280;54319;52.038;4.640;2023-04-30T03:26:19;102491.59;;;5.76;100.00
67457;BME280;54319;52.038;4.640;2023-04-30T03:28:46;102497.28;;;5.73;100.00
67457;BME280;54319;52.038;4.640;2023-04-30T03:31:13;102471.03;;;5.63;100.00
67457;BME280;54319;52.038;4.640;2023-04-30T03:33:40;102497.00;;;5.76;100.00
67457;BME280;54319;52.038;4.640;2023-04-30T03:36:06;102488.16;;;5.74;100.00
67457;BME280;54319;52.038;4.640;2023-04-30T03:38:33;102477.63;;;5.71;100.00
67457;BME280;54319;52.038;4.640;2023-04-30T03:41:00;102483.28;;;5.68;100.00
67457;BME280;54319;52.038;4.640;2023-04-30T03:43:28;102469.31;;;5.53;100.00
67457;BME280;54319;52.038;4.640;2023-04-30T03:45:54;102457.84;;;5.39;100.00
67457;BME280;54319;52.038;4.640;2023-04-30T03:48:21;102495.22;;;5.55;100.00
67457;BME280;54319;52.038;4.640;2023-04-30T03:50:48;102491.97;;;5.52;100.00
67457;BME280;54319;52.038;4.640;2023-04-30T03:53:14;102479.94;;;5.34;100.00
67457;BME280;54319;52.038;4.640;2023-04-30T03:55:41;102492.91;;;5.41;100.00
67457;BME280;54319;52.038;4.640;2023-04-30T03:58:08;102491.75;;;5.33;100.00
67457;BME280;54319;52.038;4.640;2023-04-30T04:00:36;102481.66;;;5.35;100.00
67457;BME280;54319;52.038;4.640;2023-04-30T04:03:03;102429.41;;;5.04;100.00
67457;BME280;54319;52.038;4.640;2023-04-30T04:05:29;102362.22;;;4.68;100.00
67457;BME280;54319;52.038;4.640;2023-04-30T04:07:56;102478.94;;;5.45;100.00
67457;BME280;54319;52.038;4.640;2023-04-30T04:10:22;102451.75;;;5.47;100.00
67457;BME280;54319;52.038;4.640;2023-04-30T04:12:49;102463.63;;;5.65;100.00
67457;BME280;54319;52.038;4.640;2023-04-30T04:15:16;102421.13;;;5.36;100.00
67457;BME280;54319;52.038;4.640;2023-04-30T04:17:44;102465.34;;;5.76;100.00
67457;BME280;54319;52.038;4.640;2023-04-30T04:20:11;102467.50;;;5.83;100.00
67457;BME280;54319;52.038;4.640;2023-04-30T04:22:38;102469.78;;;5.87;100.00
67457;BME280;54319;52.038;4.640;2023-04-30T04:25:05;102407.88;;;5.53;100.00
67457;BME280;54319;52.038;4.640;2023-04-30T04:27:33;102453.53;;;5.87;100.00
67457;BME280;54319;52.038;4.640;2023-04-30T04:30:01;102475.94;;;5.99;100.00
67457;BME280;54319;52.038;4.640;2023-04-30T04:32:27;102475.69;;;6.02;100.00
67457;BME280;54319;52.038;4.640;2023-04-30T04:34:56;102372.97;;;5.50;100.00
67457;BME280;54319;52.038;4.640;2023-04-30T04:37:22;102486.38;;;6.14;100.00
67457;BME280;54319;52.038;4.640;2023-04-30T04:39:49;102467.56;;;6.12;100.00
67457;BME280;54319;52.038;4.640;2023-04-30T04:42:16;102479.66;;;6.28;100.00
67457;BME280;54319;52.038;4.640;2023-04-30T04:44:44;102473.41;;;6.27;100.00
67457;BME280;54319;52.038;4.640;2023-04-30T04:47:11;102493.78;;;6.41;100.00
67457;BME280;54319;52.038;4.640;2023-04-30T04:49:37;102495.06;;;6.47;100.00
67457;BME280;54319;52.038;4.640;2023-04-30T04:52:06;102491.94;;;6.51;100.00
67457;BME280;54319;52.038;4.640;2023-04-30T04:54:33;102499.63;;;6.56;100.00
67457;BME280;54319;52.038;4.640;2023-04-30T04:56:59;102455.00;;;6.31;100.00
67457;BME280;54319;52.038;4.640;2023-04-30T04:59:27;102490.91;;;6.62;100.00
67457;BME280;54319;52.038;4.640;2023-04-30T05:01:54;102494.75;;;6.70;100.00
67457;BME280;54319;52.038;4.640;2023-04-30T05:04:20;102492.88;;;6.70;100.00
67457;BME280;54319;52.038;4.640;2023-04-30T05:06:47;102490.47;;;6.77;100.00
67457;BME280;54319;52.038;4.640;2023-04-30T05:09:15;102410.31;;;6.35;100.00
67457;BME280;54319;52.038;4.640;2023-04-30T05:11:42;102497.97;;;6.93;99.60
67457;BME280;54319;52.038;4.640;2023-04-30T05:14:10;102505.81;;;6.96;99.18
67457;BME280;54319;52.038;4.640;2023-04-30T05:16:37;102505.25;;;6.92;99.29
67457;BME280;54319;52.038;4.640;2023-04-30T05:19:03;102506.13;;;6.93;99.27
67457;BME280;54319;52.038;4.640;2023-04-30T05:21:30;102507.53;;;6.97;98.94
67457;BME280;54319;52.038;4.640;2023-04-30T05:23:57;102503.09;;;7.06;98.52
67457;BME280;54319;52.038;4.640;2023-04-30T05:26:25;102467.88;;;6.86;97.87
67457;BME280;54319;52.038;4.640;2023-04-30T05:28:51;102493.06;;;7.06;97.76
67457;BME280;54319;52.038;4.640;2023-04-30T05:31:18;102495.78;;;7.06;98.07
67457;BME280;54319;52.038;4.640;2023-04-30T05:33:45;102451.88;;;6.93;97.27
67457;BME280;54319;52.038;4.640;2023-04-30T05:36:13;102501.56;;;7.31;96.37
67457;BME280;54319;52.038;4.640;2023-04-30T05:38:40;102507.69;;;7.33;96.18
67457;BME280;54319;52.038;4.640;2023-04-30T05:41:06;102442.13;;;7.00;95.78
67457;BME280;54319;52.038;4.640;2023-04-30T05:43:34;102486.59;;;7.27;95.76
67457;BME280;54319;52.038;4.640;2023-04-30T05:46:01;102502.75;;;7.47;95.57
67457;BME280;54319;52.038;4.640;2023-04-30T05:48:28;102501.44;;;7.51;95.12
67457;BME280;54319;52.038;4.640;2023-04-30T05:50:55;102512.44;;;7.59;94.80
67457;BME280;54319;52.038;4.640;2023-04-30T05:53:21;102511.56;;;7.59;94.49
67457;BME280;54319;52.038;4.640;2023-04-30T05:55:48;102503.69;;;7.65;93.69
67457;BME280;54319;52.038;4.640;2023-04-30T05:58:15;102506.41;;;7.65;93.85
67457;BME280;54319;52.038;4.640;2023-04-30T06:00:43;102456.19;;;7.42;93.29
67457;BME280;54319;52.038;4.640;2023-04-30T06:03:09;102477.84;;;7.61;93.18
67457;BME280;54319;52.038;4.640;2023-04-30T06:05:36;102477.22;;;7.67;92.41
67457;BME280;54319;52.038;4.640;2023-04-30T06:08:05;102499.44;;;7.81;92.65
67457;BME280;54319;52.038;4.640;2023-04-30T06:10:32;102504.53;;;7.84;92.61
67457;BME280;54319;52.038;4.640;2023-04-30T06:12:58;102505.34;;;7.94;91.70
67457;BME280;54319;52.038;4.640;2023-04-30T06:15:25;102477.84;;;7.79;91.42
67457;BME280;54319;52.038;4.640;2023-04-30T06:17:53;102462.34;;;7.90;90.64
67457;BME280;54319;52.038;4.640;2023-04-30T06:20:20;102518.66;;;8.16;90.80
67457;BME280;54319;52.038;4.640;2023-04-30T06:22:47;102512.34;;;8.15;90.50
67457;BME280;54319;52.038;4.640;2023-04-30T06:25:14;102493.63;;;8.12;90.43
67457;BME280;54319;52.038;4.640;2023-04-30T06:27:40;102516.53;;;8.28;90.29
67457;BME280;54319;52.038;4.640;2023-04-30T06:30:08;102515.31;;;8.40;89.91
67457;BME280;54319;52.038;4.640;2023-04-30T06:32:35;102510.88;;;8.39;90.33
67457;BME280;54319;52.038;4.640;2023-04-30T06:35:03;102514.38;;;8.49;89.65
67457;BME280;54319;52.038;4.640;2023-04-30T06:37:30;102519.44;;;8.62;89.28
67457;BME280;54319;52.038;4.640;2023-04-30T06:40:02;102519.34;;;8.72;89.15
67457;BME280;54319;52.038;4.640;2023-04-30T06:42:36;102490.94;;;8.75;89.04
67457;BME280;54319;52.038;4.640;2023-04-30T06:45:07;102519.00;;;9.28;88.59
67457;BME280;54319;52.038;4.640;2023-04-30T06:47:34;102532.69;;;9.45;86.88
67457;BME280;54319;52.038;4.640;2023-04-30T06:50:04;102515.31;;;9.46;85.77
67457;BME280;54319;52.038;4.640;2023-04-30T06:52:31;102526.13;;;9.64;84.44
67457;BME280;54319;52.038;4.640;2023-04-30T06:54:58;102529.03;;;9.70;85.45
67457;BME280;54319;52.038;4.640;2023-04-30T06:57:25;102520.19;;;9.77;84.70
67457;BME280;54319;52.038;4.640;2023-04-30T06:59:52;102499.75;;;9.73;84.86
67457;BME280;54319;52.038;4.640;2023-04-30T07:02:18;102525.88;;;10.00;83.50
67457;BME280;54319;52.038;4.640;2023-04-30T07:04:45;102527.81;;;10.33;83.60
67457;BME280;54319;52.038;4.640;2023-04-30T07:07:15;102455.56;;;10.45;82.93
67457;BME280;54319;52.038;4.640;2023-04-30T07:09:41;102526.03;;;11.71;80.13
67457;BME280;54319;52.038;4.640;2023-04-30T07:12:08;102524.63;;;12.38;74.74
67457;BME280;54319;52.038;4.640;2023-04-30T07:14:35;102529.13;;;13.23;71.89
67457;BME280;54319;52.038;4.640;2023-04-30T07:17:02;102510.03;;;13.59;69.39
67457;BME280;54319;52.038;4.640;2023-04-30T07:19:28;102457.13;;;13.29;67.24
67457;BME280;54319;52.038;4.640;2023-04-30T07:21:55;102528.91;;;13.84;66.34
67457;BME280;54319;52.038;4.640;2023-04-30T07:24:23;102545.53;;;13.98;65.41
67457;BME280;54319;52.038;4.640;2023-04-30T07:26:50;102470.53;;;14.34;64.03
67457;BME280;54319;52.038;4.640;2023-04-30T07:29:16;102533.56;;;15.28;61.20
67457;BME280;54319;52.038;4.640;2023-04-30T07:31:43;102534.16;;;16.27;59.62
67457;BME280;54319;52.038;4.640;2023-04-30T07:34:10;102533.34;;;16.60;58.07
67457;BME280;54319;52.038;4.640;2023-04-30T07:36:37;102530.94;;;17.52;56.41
67457;BME280;54319;52.038;4.640;2023-04-30T07:39:04;102534.41;;;17.79;53.62
67457;BME280;54319;52.038;4.640;2023-04-30T07:41:33;102497.81;;;17.52;53.10
67457;BME280;54319;52.038;4.640;2023-04-30T07:44:00;102525.94;;;17.81;52.62
67457;BME280;54319;52.038;4.640;2023-04-30T07:46:27;102538.91;;;18.19;51.73
67457;BME280;54319;52.038;4.640;2023-04-30T07:48:54;102533.59;;;18.75;50.45
67457;BME280;54319;52.038;4.640;2023-04-30T07:51:20;102517.22;;;18.73;49.61
67457;BME280;54319;52.038;4.640;2023-04-30T07:53:47;102515.59;;;18.65;48.88
67457;BME280;54319;52.038;4.640;2023-04-30T07:56:14;102529.81;;;18.94;48.17
67457;BME280;54319;52.038;4.640;2023-04-30T07:58:42;102532.38;;;18.89;49.41
67457;BME280;54319;52.038;4.640;2023-04-30T08:01:08;102533.53;;;18.82;48.99
67457;BME280;54319;52.038;4.640;2023-04-30T08:03:35;102530.81;;;18.75;48.20
67457;BME280;54319;52.038;4.640;2023-04-30T08:06:05;102518.75;;;18.94;48.31
67457;BME280;54319;52.038;4.640;2023-04-30T08:08:32;102546.91;;;18.85;47.47
67457;BME280;54319;52.038;4.640;2023-04-30T08:10:58;102525.69;;;19.04;47.45
67457;BME280;54319;52.038;4.640;2023-04-30T08:13:25;102490.59;;;18.79;48.21
67457;BME280;54319;52.038;4.640;2023-04-30T08:15:53;102520.84;;;18.92;47.72
67457;BME280;54319;52.038;4.640;2023-04-30T08:18:20;102520.84;;;18.92;47.56
67457;BME280;54319;52.038;4.640;2023-04-30T08:20:46;102525.72;;;19.41;47.60
67457;BME280;54319;52.038;4.640;2023-04-30T08:23:13;102532.56;;;19.20;48.39
67457;BME280;54319;52.038;4.640;2023-04-30T08:25:41;102512.84;;;18.65;48.41
67457;BME280;54319;52.038;4.640;2023-04-30T08:28:08;102536.81;;;18.46;49.23
67457;BME280;54319;52.038;4.640;2023-04-30T08:30:35;102547.81;;;18.21;50.95
67457;BME280;54319;52.038;4.640;2023-04-30T08:33:03;102495.44;;;17.55;51.28
67457;BME280;54319;52.038;4.640;2023-04-30T08:35:29;102510.56;;;17.46;51.16
67457;BME280;54319;52.038;4.640;2023-04-30T08:37:56;102536.00;;;17.55;52.02
67457;BME280;54319;52.038;4.640;2023-04-30T08:40:23;102505.59;;;17.02;53.34
67457;BME280;54319;52.038;4.640;2023-04-30T08:42:55;102493.94;;;16.53;55.53
67457;BME280;54319;52.038;4.640;2023-04-30T08:45:26;102535.91;;;16.48;56.03
67457;BME280;54319;52.038;4.640;2023-04-30T08:47:54;102531.78;;;16.04;55.74
67457;BME280;54319;52.038;4.640;2023-04-30T08:50:24;102481.28;;;15.63;58.77
67457;BME280;54319;52.038;4.640;2023-04-30T08:52:51;102522.38;;;15.85;57.86
67457;BME280;54319;52.038;4.640;2023-04-30T08:55:18;102449.00;;;15.30;58.40
67457;BME280;54319;52.038;4.640;2023-04-30T08:57:45;102530.59;;;15.71;59.11
67457;BME280;54319;52.038;4.640;2023-04-30T09:00:12;102488.41;;;15.09;59.68
67457;BME280;54319;52.038;4.640;2023-04-30T09:02:40;102474.56;;;15.24;59.43
67457;BME280;54319;52.038;4.640;2023-04-30T09:05:08;102531.75;;;15.42;59.50
67457;BME280;54319;52.038;4.640;2023-04-30T09:07:39;102533.88;;;15.46;60.51
67457;BME280;54319;52.038;4.640;2023-04-30T09:10:15;102530.53;;;15.51;60.73
67457;BME280;54319;52.038;4.640;2023-04-30T09:12:42;102508.97;;;15.55;60.20
67457;BME280;54319;52.038;4.640;2023-04-30T09:15:10;102524.91;;;15.73;60.47
67457;BME280;54319;52.038;4.640;2023-04-30T09:17:38;102533.09;;;15.59;60.61
67457;BME280;54319;52.038;4.640;2023-04-30T09:20:09;102533.66;;;15.90;60.62
67457;BME280;54319;52.038;4.640;2023-04-30T09:22:39;102530.59;;;15.71;60.29
67457;BME280;54319;52.038;4.640;2023-04-30T09:25:06;102527.56;;;15.53;61.16
67457;BME280;54319;52.038;4.640;2023-04-30T09:27:33;102526.06;;;15.50;61.76
67457;BME280;54319;52.038;4.640;2023-04-30T09:30:00;102529.69;;;15.57;60.97
67457;BME280;54319;52.038;4.640;2023-04-30T09:32:27;102528.50;;;15.73;60.22
67457;BME280;54319;52.038;4.640;2023-04-30T09:34:54;102518.34;;;15.81;59.47
67457;BME280;54319;52.038;4.640;2023-04-30T09:37:21;102512.75;;;16.02;58.53
67457;BME280;54319;52.038;4.640;2023-04-30T09:39:50;102518.25;;;16.02;58.41
67457;BME280;54319;52.038;4.640;2023-04-30T09:42:17;102515.50;;;16.02;59.88
67457;BME280;54319;52.038;4.640;2023-04-30T09:44:45;102524.31;;;15.84;57.41
67457;BME280;54319;52.038;4.640;2023-04-30T09:47:13;102505.69;;;15.86;58.63
67457;BME280;54319;52.038;4.640;2023-04-30T09:49:41;102516.81;;;16.27;57.22
67457;BME280;54319;52.038;4.640;2023-04-30T09:52:09;102509.38;;;16.14;58.63
67457;BME280;54319;52.038;4.640;2023-04-30T09:54:37;102465.09;;;15.88;59.17
67457;BME280;54319;52.038;4.640;2023-04-30T09:57:09;102494.78;;;16.13;57.73
67457;BME280;54319;52.038;4.640;2023-04-30T09:59:37;102503.03;;;16.20;56.92
67457;BME280;54319;52.038;4.640;2023-04-30T10:02:05;102464.03;;;15.96;57.87
67457;BME280;54319;52.038;4.640;2023-04-30T10:05:00;102413.56;;;15.69;59.41
67457;BME280;54319;52.038;4.640;2023-04-30T10:07:37;102480.81;;;16.22;56.26
67457;BME280;54319;52.038;4.640;2023-04-30T10:10:07;102463.19;;;16.09;57.27
67457;BME280;54319;52.038;4.640;2023-04-30T10:12:42;102496.69;;;16.53;57.77
67457;BME280;54319;52.038;4.640;2023-04-30T10:15:14;102496.69;;;16.67;59.71
67457;BME280;54319;52.038;4.640;2023-04-30T10:17:45;102487.13;;;16.89;57.50
67457;BME280;54319;52.038;4.640;2023-04-30T10:20:14;102482.03;;;17.13;54.57
67457;BME280;54319;52.038;4.640;2023-04-30T10:22:42;102434.19;;;16.47;55.18
67457;BME280;54319;52.038;4.640;2023-04-30T10:25:11;102479.69;;;16.97;56.45
67457;BME280;54319;52.038;4.640;2023-04-30T10:27:40;102494.78;;;17.01;54.48
67457;BME280;54319;52.038;4.640;2023-04-30T10:30:09;102493.06;;;17.00;53.79
67457;BME280;54319;52.038;4.640;2023-04-30T10:32:39;102438.38;;;16.90;53.83
67457;BME280;54319;52.038;4.640;2023-04-30T10:35:15;102470.56;;;17.10;54.82
67457;BME280;54319;52.038;4.640;2023-04-30T10:37:46;102482.41;;;17.24;55.80
67457;BME280;54319;52.038;4.640;2023-04-30T10:40:14;102480.44;;;17.44;55.38
67457;BME280;54319;52.038;4.640;2023-04-30T10:42:46;102479.91;;;17.68;54.52
67457;BME280;54319;52.038;4.640;2023-04-30T10:45:14;102464.03;;;18.02;53.92
67457;BME280;54319;52.038;4.640;2023-04-30T10:47:41;102455.22;;;18.12;52.11
67457;BME280;54319;52.038;4.640;2023-04-30T10:50:10;102436.00;;;17.91;51.81
67457;BME280;54319;52.038;4.640;2023-04-30T10:52:37;102435.63;;;17.88;50.81
67457;BME280;54319;52.038;4.640;2023-04-30T10:55:05;102447.91;;;17.92;52.39
67457;BME280;54319;52.038;4.640;2023-04-30T10:57:39;102463.69;;;18.17;51.09
67457;BME280;54319;52.038;4.640;2023-04-30T11:00:24;102445.09;;;18.31;51.96
67457;BME280;54319;52.038;4.640;2023-04-30T11:02:55;102429.53;;;18.36;50.54
67457;BME280;54319;52.038;4.640;2023-04-30T11:05:34;102426.44;;;17.94;50.08
67457;BME280;54319;52.038;4.640;2023-04-30T11:08:01;102391.53;;;18.06;50.70
67457;BME280;54319;52.038;4.640;2023-04-30T11:10:31;102439.41;;;18.26;51.54
67457;BME280;54319;52.038;4.640;2023-04-30T11:13:02;102442.50;;;18.11;49.76
67457;BME280;54319;52.038;4.640;2023-04-30T11:15:33;102427.81;;;18.42;50.61
67457;BME280;54319;52.038;4.640;2023-04-30T11:18:00;102406.47;;;18.49;50.17
67457;BME280;54319;52.038;4.640;2023-04-30T11:20:27;102425.63;;;18.88;50.96
67457;BME280;54319;52.038;4.640;2023-04-30T11:23:12;102416.41;;;18.76;47.96
67457;BME280;54319;52.038;4.640;2023-04-30T11:25:41;102422.41;;;18.73;48.24
67457;BME280;54319;52.038;4.640;2023-04-30T11:28:10;102392.03;;;18.47;49.96
67457;BME280;54319;52.038;4.640;2023-04-30T11:30:41;102420.56;;;18.66;50.95
67457;BME280;54319;52.038;4.640;2023-04-30T11:33:08;102411.66;;;18.64;50.72
67457;BME280;54319;52.038;4.640;2023-04-30T11:35:36;102411.44;;;18.85;50.16
67457;BME280;54319;52.038;4.640;2023-04-30T11:38:07;102385.22;;;18.87;48.88
67457;BME280;54319;52.038;4.640;2023-04-30T11:40:35;102408.56;;;19.29;48.81
67457;BME280;54319;52.038;4.640;2023-04-30T11:43:01;102377.44;;;19.33;48.69
67457;BME280;54319;52.038;4.640;2023-04-30T11:45:28;102406.16;;;19.51;47.79
67457;BME280;54319;52.038;4.640;2023-04-30T11:47:56;102380.75;;;19.42;47.12
67457;BME280;54319;52.038;4.640;2023-04-30T11:50:25;102392.63;;;19.43;48.45
67457;BME280;54319;52.038;4.640;2023-04-30T11:52:54;102388.56;;;19.45;49.60
67457;BME280;54319;52.038;4.640;2023-04-30T11:55:22;102388.75;;;19.62;46.77
67457;BME280;54319;52.038;4.640;2023-04-30T11:57:51;102393.22;;;19.33;47.10
67457;BME280;54319;52.038;4.640;2023-04-30T12:00:21;102385.13;;;19.62;47.67
67457;BME280;54319;52.038;4.640;2023-04-30T12:02:51;102368.91;;;19.65;48.53
67457;BME280;54319;52.038;4.640;2023-04-30T12:05:22;102379.66;;;19.86;45.60
67457;BME280;54319;52.038;4.640;2023-04-30T12:07:50;102372.47;;;19.54;46.34
67457;BME280;54319;52.038;4.640;2023-04-30T12:10:20;102358.22;;;19.81;47.83
67457;BME280;54319;52.038;4.640;2023-04-30T12:12:48;102372.19;;;19.44;46.55
67457;BME280;54319;52.038;4.640;2023-04-30T12:15:18;102347.19;;;19.50;47.15
67457;BME280;54319;52.038;4.640;2023-04-30T12:17:47;102364.47;;;19.76;47.00
67457;BME280;54319;52.038;4.640;2023-04-30T12:20:14;102365.63;;;19.99;44.54
67457;BME280;54319;52.038;4.640;2023-04-30T12:22:43;102338.78;;;19.69;47.29
67457;BME280;54319;52.038;4.640;2023-04-30T12:25:12;102364.53;;;20.00;46.40
67457;BME280;54319;52.038;4.640;2023-04-30T12:27:40;102306.63;;;19.99;46.17
67457;BME280;54319;52.038;4.640;2023-04-30T12:30:08;102359.38;;;20.39;44.62
67457;BME280;54319;52.038;4.640;2023-04-30T12:32:39;102330.28;;;19.83;44.57
67457;BME280;54319;52.038;4.640;2023-04-30T12:35:07;102314.88;;;19.75;46.62
67457;BME280;54319;52.038;4.640;2023-04-30T12:37:34;102349.25;;;19.98;45.95
67457;BME280;54319;52.038;4.640;2023-04-30T12:40:03;102302.13;;;19.86;44.68
67457;BME280;54319;52.038;4.640;2023-04-30T12:42:34;102339.38;;;20.02;45.45
67457;BME280;54319;52.038;4.640;2023-04-30T12:45:01;102335.25;;;20.04;45.22
67457;BME280;54319;52.038;4.640;2023-04-30T12:47:28;102324.09;;;20.23;45.08
67457;BME280;54319;52.038;4.640;2023-04-30T12:49:55;102332.63;;;20.33;44.92
67457;BME280;54319;52.038;4.640;2023-04-30T12:52:22;102330.09;;;20.20;45.48
67457;BME280;54319;52.038;4.640;2023-04-30T12:54:49;102315.53;;;20.13;44.02
67457;BME280;54319;52.038;4.640;2023-04-30T12:57:18;102324.53;;;20.44;42.62
67457;BME280;54319;52.038;4.640;2023-04-30T12:59:56;102278.38;;;19.78;44.33